Time;durP1;ratioP1;P1;durP2;ratioP2;P2;SDS_P1;SDS_P2;PMS_P1;PMS_P2;Temp;Humidity;BMP_temperature;BMP_pressure;BME280_temperature;BME280_humidity;BME280_pressure;Samples;Min_cycle;Max_cycle;Signal;HPM_P1;HPM_P2
2021/03/10 00:01:36;;;;;;;48.58;19.95;;;;;;;2.23;56.92;99137.20;1761630;81;21496;-81
2021/03/10 00:04:05;;;;;;;45.78;18.23;;;;;;;2.18;55.85;99131.61;1778069;79;21172;-80
2021/03/10 00:06:32;;;;;;;54.35;21.05;;;;;;;2.18;55.38;99130.77;1742787;81;21276;-79
2021/03/10 00:08:59;;;;;;;37.75;17.67;;;;;;;2.17;56.02;99137.61;1804238;79;21599;-79
2021/03/10 00:11:27;;;;;;;54.93;20.70;;;;;;;2.16;56.28;99133.30;1806722;79;21274;-79
2021/03/10 00:13:54;;;;;;;51.10;21.65;;;;;;;2.14;56.47;99128.59;1815730;79;21154;-79
2021/03/10 00:16:21;;;;;;;47.48;18.15;;;;;;;2.13;55.17;99130.73;1740921;81;21296;-80
2021/03/10 00:18:49;;;;;;;49.90;20.55;;;;;;;2.11;55.74;99131.14;1764979;81;21319;-79
2021/03/10 00:21:16;;;;;;;50.48;18.98;;;;;;;2.10;56.31;99138.38;1798659;79;22267;-79
2021/03/10 00:23:43;;;;;;;56.75;22.62;;;;;;;2.10;57.26;99134.53;1789619;79;21283;-79
2021/03/10 00:26:12;;;;;;;53.68;22.00;;;;;;;2.11;56.64;99132.42;1799749;79;21280;-81
2021/03/10 00:28:39;;;;;;;47.33;19.00;;;;;;;2.12;56.20;99130.28;1806327;79;21275;-82
2021/03/10 00:31:06;;;;;;;50.35;21.27;;;;;;;2.13;55.68;99130.73;1793563;79;21262;-81
2021/03/10 00:33:34;;;;;;;44.38;19.00;;;;;;;2.14;56.39;99129.87;1811650;79;21273;-82
2021/03/10 00:36:02;;;;;;;48.55;20.97;;;;;;;2.14;55.78;99131.15;1753883;82;21329;-81
2021/03/10 00:38:29;;;;;;;49.38;21.87;;;;;;;2.09;56.50;99117.84;1771547;81;21271;-82
2021/03/10 00:40:57;;;;;;;56.88;22.05;;;;;;;2.15;56.29;99130.32;1757939;81;21244;-81
2021/03/10 00:43:24;;;;;;;50.50;21.42;;;;;;;2.16;56.29;99131.17;1789244;79;21161;-82
2021/03/10 00:45:51;;;;;;;43.60;18.35;;;;;;;2.17;55.26;99131.19;1799826;79;21209;-83
2021/03/10 00:48:19;;;;;;;53.15;21.00;;;;;;;2.17;57.85;99126.50;1795883;79;21300;-82
2021/03/10 00:50:46;;;;;;;47.38;18.10;;;;;;;2.15;56.56;99124.34;1787882;80;21218;-83
2021/03/10 00:53:14;;;;;;;50.03;21.73;;;;;;;1.95;57.51;99093.34;1787645;79;21286;-82
2021/03/10 00:55:41;;;;;;;49.98;18.32;;;;;;;2.15;57.07;99131.61;1808096;79;21102;-81
2021/03/10 00:58:08;;;;;;;54.30;22.52;;;;;;;2.15;57.77;99123.91;1790573;79;21279;-81
2021/03/10 01:00:36;;;;;;;50.23;21.12;;;;;;;2.14;55.73;99122.17;1787229;79;21239;-82
2021/03/10 01:03:04;;;;;;;61.25;22.25;;;;;;;2.11;57.43;99124.73;1814130;79;22357;-82
2021/03/10 01:05:33;;;;;;;44.75;20.00;;;;;;;2.10;55.43;99120.43;1808546;79;21147;-81
2021/03/10 01:08:02;;;;;;;47.98;21.55;;;;;;;2.07;56.54;99110.55;1815225;79;21524;-82
2021/03/10 01:10:30;;;;;;;48.92;20.45;;;;;;;2.05;57.15;99118.66;1809161;79;21349;-82
2021/03/10 01:12:57;;;;;;;62.05;22.90;;;;;;;2.00;58.52;99118.63;1814290;79;21145;-81
2021/03/10 01:15:25;;;;;;;46.15;18.98;;;;;;;1.98;57.33;99121.59;1801089;79;21256;-82
2021/03/10 01:17:52;;;;;;;55.40;22.67;;;;;;;2.00;56.05;99117.34;1803098;79;21258;-83
2021/03/10 01:20:23;;;;;;;53.48;19.10;;;;;;;2.01;56.35;99115.63;1810250;79;22293;-82
2021/03/10 01:22:50;;;;;;;57.88;23.62;;;;;;;2.01;57.62;99114.34;1807369;79;21118;-82
2021/03/10 01:25:19;;;;;;;55.67;21.12;;;;;;;1.96;58.83;99111.32;1814325;79;21142;-82
2021/03/10 01:27:47;;;;;;;68.17;24.32;;;;;;;1.97;57.20;99107.92;1789663;80;21593;-82
2021/03/10 01:30:16;;;;;;;59.90;23.45;;;;;;;2.01;57.64;99107.54;1811469;79;21265;-82
2021/03/10 01:32:44;;;;;;;67.32;21.37;;;;;;;2.04;57.59;99106.27;1810704;79;21538;-80
2021/03/10 01:35:12;;;;;;;62.78;23.73;;;;;;;2.08;57.81;99102.03;1754779;82;21337;-82
2021/03/10 01:37:40;;;;;;;110.88;26.55;;;;;;;2.12;57.07;99108.91;1747818;81;21308;-81
2021/03/10 01:40:12;;;;;;;116.17;26.93;;;;;;;2.14;57.98;99106.78;1733976;81;21150;-81
2021/03/10 01:42:40;;;;;;;99.13;26.95;;;;;;;2.17;57.27;99109.82;1762063;81;21299;-81
2021/03/10 01:45:09;;;;;;;80.38;21.02;;;;;;;2.19;58.39;99107.70;1789032;79;21170;-82
2021/03/10 01:47:43;;;;;;;63.98;22.10;;;;;;;2.18;57.24;99096.98;1797029;79;21310;-82
2021/03/10 01:50:11;;;;;;;58.48;19.95;;;;;;;2.19;57.42;99104.28;1789396;79;21272;-81
2021/03/10 01:52:39;;;;;;;48.73;20.70;;;;;;;2.18;58.85;99106.39;1784431;79;21156;-81
2021/03/10 01:55:07;;;;;;;50.30;21.20;;;;;;;2.13;58.95;99102.52;1774533;80;21181;-82
2021/03/10 01:57:35;;;;;;;43.68;19.92;;;;;;;2.08;60.73;99099.03;1793978;79;22326;-82
2021/03/10 02:00:10;;;;;;;47.15;20.27;;;;;;;2.07;58.82;99102.86;1787518;79;21142;-82
2021/03/10 02:02:42;;;;;;;39.27;16.62;;;;;;;2.01;60.17;99094.72;1802132;79;21544;-82
2021/03/10 02:05:16;;;;;;;46.10;19.25;;;;;;;1.96;60.72;99095.94;1803104;79;21480;-82
2021/03/10 02:08:12;;;;;;;44.30;17.85;;;;;;;1.92;60.86;99094.62;1755679;80;21205;-82
2021/03/10 02:11:20;;;;;;;42.13;18.48;;;;;;;1.87;62.47;99103.55;1761917;81;21206;-79
2021/03/10 02:14:01;;;;;;;47.10;18.77;;;;;;;1.88;60.70;99101.84;1811210;79;21272;-82
2021/03/10 02:16:49;;;;;;;51.83;20.48;;;;;;;1.86;61.04;99100.97;1809697;79;21317;-82
2021/03/10 02:19:28;;;;;;;41.63;16.85;;;;;;;1.88;61.49;99109.53;1753686;82;21157;-81
2021/03/10 02:22:10;;;;;;;48.42;19.23;;;;;;;1.88;58.34;99104.41;1805728;79;21272;-81
2021/03/10 02:25:04;;;;;;;50.10;18.25;;;;;;;1.87;59.38;99103.95;1809327;76;21285;-83
2021/03/10 02:27:44;;;;;;;53.08;21.15;;;;;;;1.86;60.73;99099.26;1794064;79;21142;-84
2021/03/10 02:30:32;;;;;;;50.35;20.75;;;;;;;1.89;61.08;99098.42;1791300;76;21244;-81
2021/03/10 02:33:04;;;;;;;54.15;21.30;;;;;;;1.92;60.16;99106.16;1814045;79;21173;-82
2021/03/10 02:35:33;;;;;;;53.75;21.55;;;;;;;1.93;57.53;99102.73;1765995;79;21232;-82
2021/03/10 02:38:05;;;;;;;48.23;21.33;;;;;;;1.90;59.24;99101.01;1765250;78;21178;-81
2021/03/10 02:40:33;;;;;;;49.48;21.07;;;;;;;1.95;59.60;99107.45;1757189;79;21158;-84
2021/03/10 02:43:01;;;;;;;55.65;20.15;;;;;;;1.95;59.68;99100.64;1768489;80;21316;-81
2021/03/10 02:45:29;;;;;;;58.78;23.92;;;;;;;1.96;59.87;99097.22;1783036;80;21267;-82
2021/03/10 02:47:59;;;;;;;42.80;18.70;;;;;;;1.98;59.66;99100.66;1748127;81;21209;-81
2021/03/10 02:50:28;;;;;;;52.13;22.20;;;;;;;2.01;60.76;99104.09;1775580;80;21257;-82
2021/03/10 02:52:58;;;;;;;49.03;19.70;;;;;;;2.02;59.54;99107.11;1781109;80;21314;-80
2021/03/10 02:55:25;;;;;;;55.08;23.45;;;;;;;1.94;59.55;99091.65;1758718;81;21098;-83
2021/03/10 02:57:53;;;;;;;50.28;20.40;;;;;;;2.02;60.38;99107.95;1813990;79;21284;-82
2021/03/10 03:00:23;;;;;;;54.67;22.10;;;;;;;2.03;59.95;99114.83;1796983;79;21318;-82
2021/03/10 03:02:51;;;;;;;46.73;19.48;;;;;;;2.03;59.16;99112.27;1784552;79;21247;-82
2021/03/10 03:05:18;;;;;;;47.35;21.12;;;;;;;2.01;59.80;99103.69;1787454;79;21124;-81
2021/03/10 03:07:48;;;;;;;54.18;22.50;;;;;;;2.02;59.93;99107.11;1785099;79;21119;-82
2021/03/10 03:10:25;;;;;;;54.88;21.25;;;;;;;2.02;60.57;99105.83;1792348;79;21268;-81
2021/03/10 03:12:53;;;;;;;63.08;25.45;;;;;;;2.04;60.24;99109.27;1810248;79;21773;-82
2021/03/10 03:15:23;;;;;;;59.83;22.98;;;;;;;2.03;59.46;99111.38;1816487;79;21321;-81
2021/03/10 03:17:52;;;;;;;59.00;24.90;;;;;;;2.04;59.36;99108.83;1749391;81;21339;-82
2021/03/10 03:20:21;;;;;;;55.65;22.50;;;;;;;2.04;59.38;99113.96;1768941;81;21282;-81
2021/03/10 03:22:53;;;;;;;69.95;28.65;;;;;;;2.05;60.05;99109.28;1744035;81;21198;-82
2021/03/10 03:25:24;;;;;;;108.75;42.93;;;;;;;2.06;60.32;99113.98;1756275;81;21169;-81
2021/03/10 03:27:58;;;;;;;79.70;28.90;;;;;;;2.06;59.71;99113.98;1762230;81;21268;-81
2021/03/10 03:30:26;;;;;;;;;;;;;;;2.06;58.62;99114.84;1760606;81;21087;-81
2021/03/10 03:32:55;;;;;;;59.33;19.98;;;;;;;1.94;59.08;99087.80;1755744;81;20273;-81
2021/03/10 03:35:25;;;;;;;55.95;21.70;;;;;;;2.08;58.57;99108.02;1771602;81;21322;-82
2021/03/10 03:37:54;;;;;;;59.53;23.42;;;;;;;2.08;60.51;99111.86;1772069;81;21174;-81
2021/03/10 03:40:23;;;;;;;60.10;22.50;;;;;;;2.11;60.04;99109.73;1769643;81;21173;-79
2021/03/10 03:42:52;;;;;;;57.83;22.70;;;;;;;2.10;59.33;99107.61;1783467;80;21253;-81
2021/03/10 03:45:21;;;;;;;53.70;19.85;;;;;;;2.13;59.86;99111.89;1790829;79;21202;-81
2021/03/10 03:47:56;;;;;;;48.48;21.75;;;;;;;2.12;59.01;99117.45;1812478;79;21269;-82
2021/03/10 03:50:26;;;;;;;52.80;22.02;;;;;;;1.93;59.33;99084.78;1805315;79;21268;-81
2021/03/10 03:52:55;;;;;;;59.18;23.50;;;;;;;2.13;58.58;99111.89;1807920;79;21244;-81
2021/03/10 03:55:22;;;;;;;55.58;21.87;;;;;;;2.13;58.84;99130.73;1745063;81;21330;-81
2021/03/10 03:57:50;;;;;;;54.53;20.95;;;;;;;2.12;59.66;99129.00;1811655;78;21090;-82
2021/03/10 04:00:22;;;;;;;105.37;36.53;;;;;;;2.13;57.42;99129.84;1806683;79;21315;-82
2021/03/10 04:02:50;;;;;;;133.97;43.63;;;;;;;2.05;59.88;99134.93;1797095;79;21282;-78
2021/03/10 04:05:20;;;;;;;81.05;33.80;;;;;;;2.08;57.78;99130.25;1792618;79;21268;-82
2021/03/10 04:07:56;;;;;;;63.68;27.98;;;;;;;2.06;58.35;99125.52;1787190;79;21261;-82
2021/03/10 04:10:28;;;;;;;64.85;25.50;;;;;;;1.98;59.98;99130.57;1807864;79;21301;-80
2021/03/10 04:12:56;;;;;;;56.30;24.07;;;;;;;1.93;60.29;99125.80;1814868;78;21253;-81
2021/03/10 04:15:28;;;;;;;66.00;23.67;;;;;;;1.92;59.70;99124.95;1818959;79;21284;-82
2021/03/10 04:17:56;;;;;;;57.67;24.23;;;;;;;1.92;58.47;99120.26;1814390;79;21324;-80
2021/03/10 04:20:24;;;;;;;50.92;20.05;;;;;;;1.89;60.17;99121.49;1802330;79;21324;-81
2021/03/10 04:22:52;;;;;;;62.93;24.37;;;;;;;1.91;58.38;99124.93;1807266;79;21305;-81
2021/03/10 04:25:20;;;;;;;49.75;21.33;;;;;;;1.91;60.05;99128.78;1792277;79;21154;-81
2021/03/10 04:27:47;;;;;;;57.50;20.25;;;;;;;1.90;59.01;99134.77;1795665;79;21316;-82
2021/03/10 04:30:16;;;;;;;61.25;23.45;;;;;;;1.89;58.86;99131.75;1814339;79;21595;-82
2021/03/10 04:32:43;;;;;;;61.65;19.87;;;;;;;1.90;59.33;99123.23;1788931;79;21122;-82
2021/03/10 04:35:12;;;;;;;68.90;23.65;;;;;;;1.93;59.16;99124.52;1745327;82;21300;-81
2021/03/10 04:37:40;;;;;;;54.45;19.77;;;;;;;1.94;60.21;99119.42;1769545;81;21278;-82
2021/03/10 04:40:10;;;;;;;40.33;15.72;;;;;;;1.96;58.41;99124.57;1750899;81;21304;-82
2021/03/10 04:42:39;;;;;;;40.52;17.15;;;;;;;1.88;60.28;99125.77;1764864;81;21685;-82
2021/03/10 04:45:07;;;;;;;42.55;15.18;;;;;;;1.88;59.61;99127.48;1782673;79;21236;-81
2021/03/10 04:47:35;;;;;;;41.55;16.07;;;;;;;1.81;60.38;99122.73;1818540;79;21230;-81
2021/03/10 04:50:05;;;;;;;40.28;17.20;;;;;;;1.81;61.39;99131.70;1820278;79;21200;-81
2021/03/10 04:52:34;;;;;;;38.33;15.95;;;;;;;1.80;61.27;99135.09;1808322;79;21486;-81
2021/03/10 04:55:02;;;;;;;40.33;16.87;;;;;;;1.77;59.77;99130.80;1800755;79;21286;-80
2021/03/10 04:57:29;;;;;;;49.18;16.77;;;;;;;1.74;61.40;99131.18;1741750;81;21281;-81
2021/03/10 04:59:56;;;;;;;47.95;18.77;;;;;;;1.70;62.06;99130.70;1787762;79;21309;-82
2021/03/10 05:02:24;;;;;;;48.80;15.68;;;;;;;1.65;62.39;99131.95;1743337;81;21296;-81
2021/03/10 05:04:51;;;;;;;41.80;18.45;;;;;;;1.67;61.38;99132.83;1783927;79;22137;-82
2021/03/10 05:07:18;;;;;;;45.60;17.75;;;;;;;1.67;61.15;99138.34;1789571;79;21105;-83
2021/03/10 05:09:45;;;;;;;43.87;17.73;;;;;;;1.65;62.06;99141.31;1813276;79;21260;-82
2021/03/10 05:12:13;;;;;;;50.40;17.92;;;;;;;1.61;62.35;99139.13;1801816;79;21300;-83
2021/03/10 05:14:41;;;;;;;41.63;16.07;;;;;;;1.58;64.06;99134.84;1770343;81;21212;-82
2021/03/10 05:17:08;;;;;;;50.28;18.82;;;;;;;1.58;61.40;99139.97;1800680;79;21577;-82
2021/03/10 05:19:35;;;;;;;46.63;16.77;;;;;;;1.55;68.02;99137.39;1815810;78;21225;-81
2021/03/10 05:22:03;;;;;;;48.45;19.27;;;;;;;1.60;66.42;99137.43;1820915;78;21292;-81
2021/03/10 05:24:30;;;;;;;44.53;19.90;;;;;;;1.63;61.76;99137.45;1824265;78;21124;-83
2021/03/10 05:26:58;;;;;;;42.40;18.37;;;;;;;1.63;64.02;99132.75;1837059;78;21101;-83
2021/03/10 05:29:25;;;;;;;54.03;20.02;;;;;;;1.63;65.65;99136.17;1817896;78;21281;-82
2021/03/10 05:31:52;;;;;;;39.75;17.20;;;;;;;1.68;70.39;99134.95;1826253;78;21259;-82
2021/03/10 05:34:20;;;;;;;46.00;19.98;;;;;;;1.68;71.55;99137.09;1748159;81;21126;-81
2021/03/10 05:36:47;;;;;;;45.67;19.35;;;;;;;1.69;73.95;99144.35;1802582;79;21603;-82
2021/03/10 05:39:15;;;;;;;39.38;16.25;;;;;;;1.76;72.23;99144.44;1798824;79;21161;-82
2021/03/10 05:41:43;;;;;;;41.30;16.17;;;;;;;1.82;67.12;99146.65;1814619;79;21294;-81
2021/03/10 05:44:11;;;;;;;32.38;13.72;;;;;;;1.85;70.60;99147.95;1747423;81;21153;-78
2021/03/10 05:46:39;;;;;;;41.53;14.28;;;;;;;1.90;71.80;99145.02;1758009;81;21613;-78
2021/03/10 05:49:08;;;;;;;33.05;14.00;;;;;;;1.86;73.30;99155.66;1812321;79;21165;-78
2021/03/10 05:51:37;;;;;;;36.03;14.43;;;;;;;1.90;73.35;99147.59;1801751;79;21272;-81
2021/03/10 05:54:05;;;;;;;28.55;12.35;;;;;;;1.96;73.58;99157.47;1744090;81;21172;-78
2021/03/10 05:56:33;;;;;;;36.25;15.15;;;;;;;1.98;74.02;99146.81;1805532;79;22128;-78
2021/03/10 05:59:04;;;;;;;48.75;20.48;;;;;;;2.02;71.05;99154.12;1789375;79;21302;-81
2021/03/10 06:01:31;;;;;;;32.38;15.40;;;;;;;2.04;73.97;99152.42;1796561;79;21280;-82
2021/03/10 06:04:03;;;;;;;40.63;18.00;;;;;;;2.08;69.62;99158.02;1763056;81;21299;-81
2021/03/10 06:06:37;;;;;;;38.53;15.90;;;;;;;2.03;74.90;99151.12;1763698;81;21167;-82
2021/03/10 06:09:19;;;;;;;35.33;14.60;;;;;;;2.07;71.28;99152.88;1799464;79;21187;-79
2021/03/10 06:11:57;;;;;;;36.68;15.08;;;;;;;2.07;68.55;99159.28;1807181;79;21095;-82
2021/03/10 06:14:25;;;;;;;34.78;14.65;;;;;;;2.03;70.05;99167.39;1813563;79;21688;-79
2021/03/10 06:17:11;;;;;;;37.98;14.78;;;;;;;2.04;71.02;99170.81;1795961;79;21109;-82
2021/03/10 06:19:45;;;;;;;33.00;15.50;;;;;;;2.04;73.42;99175.94;1803457;79;21300;-80
2021/03/10 06:22:14;;;;;;;36.85;14.80;;;;;;;2.06;75.66;99186.64;1787844;79;21166;-79
2021/03/10 06:24:42;;;;;;;33.33;14.03;;;;;;;2.09;76.34;99171.30;1814897;79;21296;-81
2021/03/10 06:27:10;;;;;;;37.53;15.18;;;;;;;2.18;74.53;99180.78;1812311;79;21180;-81
2021/03/10 06:29:38;;;;;;;33.95;15.90;;;;;;;2.19;77.07;99179.95;1814731;79;21304;-81
2021/03/10 06:32:08;;;;;;;43.08;18.07;;;;;;;2.19;78.53;99183.80;1739401;82;21198;-81
2021/03/10 06:34:49;;;;;;;43.00;18.37;;;;;;;2.24;79.11;99182.12;1751689;81;21601;-80
2021/03/10 06:37:30;;;;;;;46.00;19.82;;;;;;;2.31;73.77;99186.91;1762742;81;21641;-79
2021/03/10 06:40:11;;;;;;;50.05;20.77;;;;;;;2.30;76.12;99187.31;1805909;79;21138;-81
2021/03/10 06:42:40;;;;;;;56.08;23.42;;;;;;;2.41;72.71;99192.95;1808321;79;21266;-81
2021/03/10 06:45:08;;;;;;;60.92;25.57;;;;;;;2.45;73.31;99193.42;1813073;79;21307;-81
2021/03/10 06:47:39;;;;;;;62.73;25.15;;;;;;;2.30;79.75;99189.02;1740752;81;21780;-81
2021/03/10 06:52:51;;;;;;;39.70;15.58;;;;;;;2.48;78.80;99195.59;1836171;77;23792;-77
2021/03/10 06:55:19;;;;;;;39.95;15.10;;;;;;;2.50;77.52;99197.75;1816540;78;21273;-80
2021/03/10 06:57:46;;;;;;;30.60;14.68;;;;;;;2.56;75.23;99194.39;1747558;81;21737;-79
2021/03/10 07:00:21;;;;;;;31.57;14.60;;;;;;;2.54;78.96;99193.52;1758311;80;21267;-82
2021/03/10 07:02:49;;;;;;;31.52;13.55;;;;;;;2.61;76.48;99196.59;1746336;81;21302;-79
2021/03/10 07:05:18;;;;;;;35.55;15.70;;;;;;;2.64;78.07;99196.59;1743538;81;21355;-80
2021/03/10 07:07:47;;;;;;;29.23;14.68;;;;;;;2.64;78.51;99199.16;1743565;80;21286;-81
2021/03/10 07:10:17;;;;;;;30.97;13.90;;;;;;;2.75;77.13;99200.55;1741690;81;21189;-81
2021/03/10 07:12:45;;;;;;;36.75;16.12;;;;;;;2.83;74.33;99196.77;1745453;80;21170;-82
2021/03/10 07:15:14;;;;;;;36.68;16.02;;;;;;;2.78;77.93;99196.27;1753548;80;21183;-80
2021/03/10 07:17:45;;;;;;;30.65;15.43;;;;;;;2.92;74.03;99195.53;1744298;80;21160;-84
2021/03/10 07:20:14;;;;;;;32.48;14.75;;;;;;;2.89;73.92;99195.52;1738689;80;21212;-78
2021/03/10 07:22:53;;;;;;;35.48;16.80;;;;;;;2.90;76.79;99202.36;1748951;80;21172;-78
2021/03/10 07:25:30;;;;;;;35.38;15.32;;;;;;;2.94;75.23;99201.10;1759758;81;21290;-80
2021/03/10 07:28:15;;;;;;;28.05;11.68;;;;;;;2.89;75.86;99202.80;1750176;81;21322;-81
2021/03/10 07:30:47;;;;;;;29.57;14.18;;;;;;;2.97;73.01;99199.00;1740677;81;21327;-80
2021/03/10 07:33:18;;;;;;;31.77;14.05;;;;;;;2.89;78.47;99196.80;1762805;80;21301;-80
2021/03/10 07:35:58;;;;;;;34.08;15.23;;;;;;;2.94;77.43;99200.25;1745814;81;21314;-79
2021/03/10 07:38:39;;;;;;;32.88;13.30;;;;;;;3.09;75.13;99202.08;1773441;80;21279;-79
2021/03/10 07:41:11;;;;;;;32.17;13.00;;;;;;;3.18;75.37;99203.41;1764354;80;21145;-78
2021/03/10 07:43:44;;;;;;;36.53;14.70;;;;;;;3.20;75.92;99202.99;1756276;80;21174;-78
2021/03/10 07:46:29;;;;;;;32.40;14.50;;;;;;;3.31;76.16;99201.36;1764945;80;21176;-79
2021/03/10 07:48:59;;;;;;;33.63;16.27;;;;;;;3.33;75.33;99200.94;1749133;80;21154;-80
2021/03/10 07:51:33;;;;;;;31.07;13.90;;;;;;;3.40;74.92;99204.39;1708032;82;21205;-80
2021/03/10 07:54:05;;;;;;;32.42;14.28;;;;;;;3.39;75.15;99204.83;1716666;83;21592;-80
2021/03/10 07:56:33;;;;;;;34.08;16.37;;;;;;;3.51;74.21;99200.18;1714452;82;21646;-80
2021/03/10 07:59:17;;;;;;;37.85;16.87;;;;;;;3.61;73.69;99195.95;1691762;83;21195;-80
2021/03/10 08:01:47;;;;;;;36.93;16.75;;;;;;;3.65;74.90;99201.53;1710043;82;21161;-81
2021/03/10 08:04:18;;;;;;;33.02;15.10;;;;;;;3.70;73.73;99198.97;1710271;83;21177;-80
2021/03/10 08:06:50;;;;;;;32.67;14.87;;;;;;;3.73;73.57;99193.42;1707038;83;21791;-80
2021/03/10 08:09:20;;;;;;;44.85;20.12;;;;;;;3.73;73.42;99194.70;1716158;82;21160;-81
2021/03/10 08:12:11;;;;;;;42.27;19.62;;;;;;;3.90;72.86;99188.75;1718469;82;21185;-81
2021/03/10 08:14:43;;;;;;;34.92;16.17;;;;;;;3.95;73.26;99190.94;1715054;83;21176;-80
2021/03/10 08:17:22;;;;;;;30.23;15.63;;;;;;;3.88;73.64;99190.06;1734150;81;21176;-81
2021/03/10 08:19:56;;;;;;;32.80;15.35;;;;;;;3.96;71.27;99187.52;1725339;83;21272;-81
2021/03/10 08:22:26;;;;;;;31.65;16.30;;;;;;;3.86;73.31;99187.91;1732042;83;21157;-83
2021/03/10 08:24:56;;;;;;;38.20;17.60;;;;;;;3.83;72.45;99171.61;1726875;83;21195;-84
2021/03/10 08:27:42;;;;;;;35.08;17.15;;;;;;;3.95;73.41;99182.78;1731870;83;21150;-83
2021/03/10 08:30:14;;;;;;;43.40;19.25;;;;;;;4.02;71.67;99178.94;1706673;83;21588;-80
2021/03/10 08:32:42;;;;;;;57.95;32.98;;;;;;;4.04;73.51;99174.25;1715807;83;21366;-81
2021/03/10 08:35:16;;;;;;;37.13;18.10;;;;;;;4.14;72.10;99177.70;1724761;83;21303;-80
2021/03/10 08:37:56;;;;;;;34.38;15.10;;;;;;;4.25;72.38;99177.71;1732688;83;21163;-80
2021/03/10 08:40:28;;;;;;;31.68;14.33;;;;;;;4.38;72.73;99174.31;1726346;83;21143;-80
2021/03/10 08:42:57;;;;;;;44.30;19.25;;;;;;;4.54;72.31;99172.61;1735801;83;21182;-80
2021/03/10 08:45:38;;;;;;;37.48;17.82;;;;;;;4.66;71.89;99161.02;1714066;83;21214;-81
2021/03/10 08:48:09;;;;;;;33.20;16.35;;;;;;;4.87;71.90;99165.72;1727500;83;21161;-79
2021/03/10 08:50:46;;;;;;;33.92;16.73;;;;;;;4.97;70.59;99167.01;1714979;83;21178;-80
2021/03/10 08:53:15;;;;;;;39.40;17.30;;;;;;;5.02;69.98;99159.27;1710670;83;21220;-79
2021/03/10 08:55:48;;;;;;;37.48;16.62;;;;;;;5.07;70.02;99147.65;1716961;83;21323;-80
2021/03/10 08:58:19;;;;;;;39.10;16.82;;;;;;;5.14;69.07;99148.08;1785112;80;21740;-80
2021/03/10 09:00:48;;;;;;;34.15;16.07;;;;;;;5.18;69.03;99151.92;1768413;79;21621;-80
2021/03/10 09:03:18;;;;;;;36.70;17.10;;;;;;;5.22;68.46;99154.06;1748906;81;21167;-81
2021/03/10 09:05:50;;;;;;;34.05;17.17;;;;;;;5.12;68.83;99162.24;1790473;80;21171;-80
2021/03/10 09:08:26;;;;;;;38.35;16.57;;;;;;;5.32;68.43;99155.75;1775668;79;21427;-79
2021/03/10 09:11:00;;;;;;;31.95;16.02;;;;;;;5.41;67.74;99153.56;1756061;80;21320;-82
2021/03/10 09:13:37;;;;;;;39.30;17.67;;;;;;;5.45;67.37;99154.41;1888278;75;23028;-80
2021/03/10 09:16:09;;;;;;;33.70;16.73;;;;;;;5.43;67.56;99149.70;1856210;77;21145;-80
2021/03/10 09:18:39;;;;;;;37.53;17.30;;;;;;;5.37;67.62;99156.61;1780208;80;21289;-81
2021/03/10 09:21:07;;;;;;;33.08;16.02;;;;;;;5.36;67.17;99157.45;1813017;78;21272;-81
2021/03/10 09:23:37;;;;;;;36.88;15.60;;;;;;;5.37;67.33;99165.63;1809059;79;21126;-81
2021/03/10 09:26:06;;;;;;;33.08;15.68;;;;;;;5.37;66.76;99162.17;1808294;79;21294;-80
2021/03/10 09:28:40;;;;;;;45.85;19.32;;;;;;;5.45;67.06;99164.33;1805162;79;22000;-81
2021/03/10 09:31:17;;;;;;;45.28;17.27;;;;;;;5.56;67.77;99158.67;1841617;76;22923;-82
2021/03/10 09:34:04;;;;;;;30.57;14.40;;;;;;;5.65;67.30;99152.64;1786781;78;21168;-81
2021/03/10 09:36:38;;;;;;;31.00;16.00;;;;;;;5.59;64.81;99155.25;1796042;78;21125;-83
2021/03/10 09:39:08;;;;;;;33.35;15.53;;;;;;;5.63;65.32;99159.53;1818674;78;21490;-81
2021/03/10 09:41:49;;;;;;;36.05;15.32;;;;;;;5.61;65.19;99148.36;1817629;78;23267;-82
2021/03/10 09:44:18;;;;;;;29.82;14.13;;;;;;;5.61;65.32;99147.48;1807660;79;21423;-81
2021/03/10 09:46:48;;;;;;;50.40;15.70;;;;;;;5.46;64.70;99146.69;1807445;79;21558;-81
2021/03/10 09:49:17;;;;;;;139.47;54.08;;;;;;;5.56;64.78;99152.66;1796949;79;21151;-81
2021/03/10 09:51:48;;;;;;;37.20;16.15;;;;;;;5.48;64.95;99142.38;1805556;79;21169;-79
2021/03/10 09:54:17;;;;;;;28.92;13.32;;;;;;;5.52;64.58;99142.79;1733417;82;22222;-80
2021/03/10 09:56:57;;;;;;;30.08;12.63;;;;;;;5.53;64.35;99143.64;1820711;78;23023;-81
2021/03/10 09:59:33;;;;;;;60.05;25.48;;;;;;;5.29;62.47;99148.05;1812419;79;21166;-81
2021/03/10 10:02:06;;;;;;;24.18;10.85;;;;;;;5.32;62.80;99145.88;1734134;82;21779;-81
2021/03/10 10:04:38;;;;;;;22.50;11.60;;;;;;;5.18;62.79;99152.36;1804251;79;21311;-82
2021/03/10 10:07:09;;;;;;;39.75;17.50;;;;;;;4.94;63.49;99153.27;1794712;79;21559;-82
2021/03/10 10:09:50;;;;;;;24.25;12.20;;;;;;;4.92;64.12;99153.70;1821935;77;22908;-81
2021/03/10 10:12:21;;;;;;;25.23;11.75;;;;;;;4.80;64.85;99155.86;1814826;78;21748;-81
2021/03/10 10:14:53;;;;;;;22.42;11.00;;;;;;;4.66;65.15;99158.88;1782852;78;21132;-80
2021/03/10 10:17:22;;;;;;;43.90;19.52;;;;;;;4.51;67.22;99155.42;1802436;78;22372;-81
2021/03/10 10:19:51;;;;;;;110.05;43.10;;;;;;;4.57;66.99;99156.70;1813582;78;21134;-81
2021/03/10 10:22:20;;;;;;;69.70;29.48;;;;;;;4.63;67.20;99161.00;1817505;78;21307;-80
2021/03/10 10:24:47;;;;;;;26.15;13.62;;;;;;;4.72;65.71;99162.73;1820389;78;21279;-81
2021/03/10 10:27:16;;;;;;;40.38;18.67;;;;;;;4.61;66.62;99166.58;1819613;78;21624;-81
2021/03/10 10:29:44;;;;;;;40.75;20.17;;;;;;;4.56;69.70;99174.75;1790534;78;21322;-81
2021/03/10 10:32:13;;;;;;;61.25;29.12;;;;;;;4.54;70.79;99173.45;1802146;78;21134;-79
2021/03/10 10:34:41;;;;;;;43.87;18.07;;;;;;;4.60;67.97;99166.17;1821118;78;22213;-79
2021/03/10 10:37:11;;;;;;;62.20;25.85;;;;;;;4.70;69.47;99159.30;1807903;78;21101;-80
2021/03/10 10:39:46;;;;;;;42.48;21.17;;;;;;;4.84;70.17;99169.59;1827114;78;21169;-81
2021/03/10 10:42:17;;;;;;;43.48;17.67;;;;;;;4.97;69.61;99167.01;1766141;80;21605;-82
2021/03/10 10:44:45;;;;;;;40.17;17.95;;;;;;;5.04;70.11;99165.71;1756158;81;21192;-80
2021/03/10 10:47:15;;;;;;;38.98;18.85;;;;;;;5.11;70.86;99155.80;1754976;81;22403;-80
2021/03/10 10:49:45;;;;;;;38.67;18.07;;;;;;;5.22;69.98;99153.22;1716935;82;21165;-82
2021/03/10 10:52:13;;;;;;;44.48;18.35;;;;;;;5.37;69.39;99153.15;1764135;81;21467;-81
2021/03/10 10:54:42;;;;;;;37.67;19.12;;;;;;;5.48;68.95;99144.95;1762314;81;21180;-81
2021/03/10 10:57:09;;;;;;;33.65;17.20;;;;;;;5.56;69.63;99144.93;1763251;81;21141;-83
2021/03/10 10:59:39;;;;;;;38.42;18.80;;;;;;;5.69;68.68;99144.44;1758386;81;21157;-82
2021/03/10 11:02:09;;;;;;;35.85;17.32;;;;;;;5.71;70.40;99147.45;1758530;81;21137;-79
2021/03/10 11:04:38;;;;;;;35.13;16.70;;;;;;;5.80;69.34;99143.11;1750669;81;21323;-80
2021/03/10 11:07:09;;;;;;;35.88;17.10;;;;;;;5.83;70.17;99148.23;1758624;81;21302;-80
2021/03/10 11:09:39;;;;;;;33.00;16.60;;;;;;;5.76;68.76;99142.26;1746826;81;21177;-81
2021/03/10 11:12:11;;;;;;;31.42;15.72;;;;;;;5.74;68.36;99146.13;1792374;79;21165;-81
2021/03/10 11:14:40;;;;;;;31.33;15.63;;;;;;;5.78;69.12;99146.53;1743990;82;21156;-79
2021/03/10 11:17:10;;;;;;;40.28;18.67;;;;;;;5.88;68.91;99139.61;1803149;79;21287;-80
2021/03/10 11:19:51;;;;;;;37.45;18.02;;;;;;;5.97;69.23;99136.17;1813465;78;22689;-80
2021/03/10 11:22:21;;;;;;;30.77;16.45;;;;;;;5.93;68.20;99143.48;1804077;79;21177;-81
2021/03/10 11:24:49;;;;;;;35.17;17.17;;;;;;;5.90;69.35;99127.55;1790822;79;21177;-79
2021/03/10 11:27:20;;;;;;;33.38;16.12;;;;;;;5.90;69.35;99124.98;1810980;79;21154;-80
2021/03/10 11:29:46;;;;;;;35.15;16.00;;;;;;;5.91;69.66;99128.00;1765614;79;21148;-81
2021/03/10 11:32:15;;;;;;;32.75;16.02;;;;;;;5.86;68.35;99125.86;1801044;79;22407;-81
2021/03/10 11:34:44;;;;;;;30.77;16.50;;;;;;;5.82;68.80;99122.03;1804425;79;21161;-81
2021/03/10 11:37:14;;;;;;;28.95;14.95;;;;;;;5.73;69.09;99116.05;1794478;79;21178;-80
2021/03/10 11:39:43;;;;;;;34.80;15.85;;;;;;;5.69;69.34;99111.78;1791084;79;21558;-82
2021/03/10 11:42:11;;;;;;;31.70;15.60;;;;;;;5.67;70.15;99110.93;1813483;79;21146;-80
2021/03/10 11:44:38;;;;;;;31.77;15.80;;;;;;;5.68;69.38;99111.34;1795901;79;21630;-80